sensor_id;sensor_type;location;lat;lon;timestamp;P1;durP1;ratioP1;P2;durP2;ratioP2
10246;SDS011;5168;47.854;7.944;2023-07-13T00:01:27;2.23;;;1.90;;
10246;SDS011;5168;47.854;7.944;2023-07-13T00:03:54;1.93;;;1.73;;
10246;SDS011;5168;47.854;7.944;2023-07-13T00:06:21;1.83;;;1.70;;
10246;SDS011;5168;47.854;7.944;2023-07-13T00:08:47;1.80;;;1.70;;
10246;SDS011;5168;47.854;7.944;2023-07-13T00:11:14;2.20;;;2.00;;
10246;SDS011;5168;47.854;7.944;2023-07-13T00:13:40;2.10;;;1.90;;
10246;SDS011;5168;47.854;7.944;2023-07-13T00:16:06;1.70;;;1.60;;
10246;SDS011;5168;47.854;7.944;2023-07-13T00:18:33;2.07;;;1.83;;
10246;SDS011;5168;47.854;7.944;2023-07-13T00:20:59;2.10;;;1.90;;
10246;SDS011;5168;47.854;7.944;2023-07-13T00:23:34;1.90;;;1.80;;
10246;SDS011;5168;47.854;7.944;2023-07-13T00:26:00;2.17;;;1.80;;
10246;SDS011;5168;47.854;7.944;2023-07-13T00:28:27;2.20;;;2.00;;
10246;SDS011;5168;47.854;7.944;2023-07-13T00:30:53;1.87;;;1.77;;
10246;SDS011;5168;47.854;7.944;2023-07-13T00:33:19;1.73;;;1.63;;
10246;SDS011;5168;47.854;7.944;2023-07-13T00:35:45;1.97;;;1.77;;
10246;SDS011;5168;47.854;7.944;2023-07-13T00:38:10;2.00;;;1.80;;
10246;SDS011;5168;47.854;7.944;2023-07-13T00:40:36;1.83;;;1.73;;
10246;SDS011;5168;47.854;7.944;2023-07-13T00:43:02;2.43;;;1.80;;
10246;SDS011;5168;47.854;7.944;2023-07-13T00:47:55;1.73;;;1.63;;
10246;SDS011;5168;47.854;7.944;2023-07-13T00:50:22;3.00;;;1.60;;
10246;SDS011;5168;47.854;7.944;2023-07-13T00:52:49;2.30;;;1.70;;
10246;SDS011;5168;47.854;7.944;2023-07-13T00:55:18;1.60;;;1.50;;
10246;SDS011;5168;47.854;7.944;2023-07-13T00:57:45;2.23;;;1.50;;
10246;SDS011;5168;47.854;7.944;2023-07-13T01:00:11;2.70;;;2.10;;
10246;SDS011;5168;47.854;7.944;2023-07-13T01:02:38;3.67;;;2.00;;
10246;SDS011;5168;47.854;7.944;2023-07-13T01:05:10;1.97;;;1.87;;
10246;SDS011;5168;47.854;7.944;2023-07-13T01:07:36;2.00;;;1.80;;
10246;SDS011;5168;47.854;7.944;2023-07-13T01:10:03;3.00;;;1.63;;
10246;SDS011;5168;47.854;7.944;2023-07-13T01:12:29;2.17;;;1.60;;
10246;SDS011;5168;47.854;7.944;2023-07-13T01:14:59;5.50;;;2.10;;
10246;SDS011;5168;47.854;7.944;2023-07-13T01:17:27;2.03;;;1.70;;
10246;SDS011;5168;47.854;7.944;2023-07-13T01:19:53;2.83;;;1.83;;
10246;SDS011;5168;47.854;7.944;2023-07-13T01:22:19;2.07;;;1.80;;
10246;SDS011;5168;47.854;7.944;2023-07-13T01:24:51;3.47;;;1.60;;
10246;SDS011;5168;47.854;7.944;2023-07-13T01:27:22;3.63;;;1.73;;
10246;SDS011;5168;47.854;7.944;2023-07-13T01:29:51;1.77;;;1.67;;
10246;SDS011;5168;47.854;7.944;2023-07-13T01:32:21;2.40;;;1.60;;
10246;SDS011;5168;47.854;7.944;2023-07-13T01:34:49;3.33;;;1.67;;
10246;SDS011;5168;47.854;7.944;2023-07-13T01:37:19;2.40;;;1.50;;
10246;SDS011;5168;47.854;7.944;2023-07-13T01:39:45;2.80;;;1.67;;
10246;SDS011;5168;47.854;7.944;2023-07-13T01:42:10;1.80;;;1.70;;
10246;SDS011;5168;47.854;7.944;2023-07-13T01:44:36;1.60;;;1.50;;
10246;SDS011;5168;47.854;7.944;2023-07-13T01:47:02;1.70;;;1.60;;
10246;SDS011;5168;47.854;7.944;2023-07-13T01:49:27;1.70;;;1.60;;
10246;SDS011;5168;47.854;7.944;2023-07-13T01:51:53;1.73;;;1.50;;
10246;SDS011;5168;47.854;7.944;2023-07-13T01:54:19;1.70;;;1.60;;
10246;SDS011;5168;47.854;7.944;2023-07-13T01:56:45;1.90;;;1.67;;
10246;SDS011;5168;47.854;7.944;2023-07-13T01:59:11;3.27;;;1.90;;
10246;SDS011;5168;47.854;7.944;2023-07-13T02:01:36;4.70;;;2.00;;
10246;SDS011;5168;47.854;7.944;2023-07-13T02:04:02;3.07;;;1.70;;
10246;SDS011;5168;47.854;7.944;2023-07-13T02:06:28;3.03;;;2.00;;
10246;SDS011;5168;47.854;7.944;2023-07-13T02:08:53;1.80;;;1.70;;
10246;SDS011;5168;47.854;7.944;2023-07-13T02:11:19;2.40;;;1.73;;
10246;SDS011;5168;47.854;7.944;2023-07-13T02:13:45;3.10;;;1.70;;
10246;SDS011;5168;47.854;7.944;2023-07-13T02:16:11;5.93;;;1.70;;
10246;SDS011;5168;47.854;7.944;2023-07-13T02:18:37;4.20;;;1.60;;
10246;SDS011;5168;47.854;7.944;2023-07-13T02:21:02;2.63;;;1.97;;
10246;SDS011;5168;47.854;7.944;2023-07-13T02:23:28;5.17;;;1.80;;
10246;SDS011;5168;47.854;7.944;2023-07-13T02:25:55;3.53;;;1.77;;
10246;SDS011;5168;47.854;7.944;2023-07-13T02:28:21;2.30;;;1.73;;
10246;SDS011;5168;47.854;7.944;2023-07-13T02:30:47;4.17;;;2.10;;
10246;SDS011;5168;47.854;7.944;2023-07-13T02:33:12;3.83;;;2.13;;
10246;SDS011;5168;47.854;7.944;2023-07-13T02:35:38;5.53;;;2.00;;
10246;SDS011;5168;47.854;7.944;2023-07-13T02:38:04;3.00;;;2.10;;
10246;SDS011;5168;47.854;7.944;2023-07-13T02:40:30;6.27;;;2.20;;
10246;SDS011;5168;47.854;7.944;2023-07-13T02:42:58;2.67;;;2.20;;
10246;SDS011;5168;47.854;7.944;2023-07-13T02:45:24;5.60;;;2.00;;
10246;SDS011;5168;47.854;7.944;2023-07-13T02:47:49;2.57;;;2.20;;
10246;SDS011;5168;47.854;7.944;2023-07-13T02:50:15;3.83;;;2.17;;
10246;SDS011;5168;47.854;7.944;2023-07-13T02:52:41;4.57;;;2.37;;
10246;SDS011;5168;47.854;7.944;2023-07-13T02:55:07;3.97;;;2.10;;
10246;SDS011;5168;47.854;7.944;2023-07-13T02:57:33;5.97;;;2.30;;
10246;SDS011;5168;47.854;7.944;2023-07-13T02:59:59;4.90;;;2.30;;
10246;SDS011;5168;47.854;7.944;2023-07-13T03:02:25;4.87;;;2.17;;
10246;SDS011;5168;47.854;7.944;2023-07-13T03:04:52;3.57;;;2.30;;
10246;SDS011;5168;47.854;7.944;2023-07-13T03:07:19;2.40;;;2.10;;
10246;SDS011;5168;47.854;7.944;2023-07-13T03:09:45;2.50;;;2.20;;
10246;SDS011;5168;47.854;7.944;2023-07-13T03:12:10;2.70;;;2.10;;
10246;SDS011;5168;47.854;7.944;2023-07-13T03:14:36;2.77;;;2.23;;
10246;SDS011;5168;47.854;7.944;2023-07-13T03:17:02;3.23;;;2.30;;
10246;SDS011;5168;47.854;7.944;2023-07-13T03:19:28;5.53;;;2.33;;
10246;SDS011;5168;47.854;7.944;2023-07-13T03:21:54;2.20;;;2.00;;
10246;SDS011;5168;47.854;7.944;2023-07-13T03:24:20;2.37;;;2.03;;
10246;SDS011;5168;47.854;7.944;2023-07-13T03:26:48;2.30;;;2.00;;
10246;SDS011;5168;47.854;7.944;2023-07-13T03:29:14;2.30;;;2.10;;
10246;SDS011;5168;47.854;7.944;2023-07-13T03:31:39;2.13;;;1.80;;
10246;SDS011;5168;47.854;7.944;2023-07-13T03:34:05;4.10;;;2.27;;
10246;SDS011;5168;47.854;7.944;2023-07-13T03:36:31;4.17;;;2.23;;
10246;SDS011;5168;47.854;7.944;2023-07-13T03:38:58;2.90;;;2.30;;
10246;SDS011;5168;47.854;7.944;2023-07-13T03:41:27;2.00;;;1.90;;
10246;SDS011;5168;47.854;7.944;2023-07-13T03:43:52;2.40;;;1.90;;
10246;SDS011;5168;47.854;7.944;2023-07-13T03:46:18;2.60;;;2.00;;
10246;SDS011;5168;47.854;7.944;2023-07-13T03:48:45;3.03;;;2.00;;
10246;SDS011;5168;47.854;7.944;2023-07-13T03:51:12;4.77;;;2.47;;
10246;SDS011;5168;47.854;7.944;2023-07-13T03:53:40;2.47;;;2.07;;
10246;SDS011;5168;47.854;7.944;2023-07-13T03:56:08;2.13;;;1.93;;
10246;SDS011;5168;47.854;7.944;2023-07-13T03:58:35;2.30;;;2.10;;
10246;SDS011;5168;47.854;7.944;2023-07-13T04:01:03;2.33;;;2.10;;
10246;SDS011;5168;47.854;7.944;2023-07-13T04:03:30;2.83;;;1.80;;
10246;SDS011;5168;47.854;7.944;2023-07-13T04:05:58;2.20;;;2.00;;
10246;SDS011;5168;47.854;7.944;2023-07-13T04:08:32;3.03;;;2.20;;
10246;SDS011;5168;47.854;7.944;2023-07-13T04:10:59;2.20;;;1.97;;
10246;SDS011;5168;47.854;7.944;2023-07-13T04:13:25;3.77;;;2.10;;
10246;SDS011;5168;47.854;7.944;2023-07-13T04:15:52;2.33;;;2.07;;
10246;SDS011;5168;47.854;7.944;2023-07-13T04:18:18;2.53;;;2.17;;
10246;SDS011;5168;47.854;7.944;2023-07-13T04:20:44;2.60;;;2.40;;
10246;SDS011;5168;47.854;7.944;2023-07-13T04:23:11;5.40;;;2.27;;
10246;SDS011;5168;47.854;7.944;2023-07-13T04:25:37;2.37;;;2.10;;
10246;SDS011;5168;47.854;7.944;2023-07-13T04:28:03;2.37;;;2.17;;
10246;SDS011;5168;47.854;7.944;2023-07-13T04:30:29;4.00;;;1.97;;
10246;SDS011;5168;47.854;7.944;2023-07-13T04:32:55;2.30;;;2.10;;
10246;SDS011;5168;47.854;7.944;2023-07-13T04:35:21;3.00;;;2.07;;
10246;SDS011;5168;47.854;7.944;2023-07-13T04:37:48;3.23;;;2.20;;
10246;SDS011;5168;47.854;7.944;2023-07-13T04:40:15;3.93;;;2.00;;
10246;SDS011;5168;47.854;7.944;2023-07-13T04:42:44;2.33;;;1.80;;
10246;SDS011;5168;47.854;7.944;2023-07-13T04:45:11;2.30;;;2.10;;
10246;SDS011;5168;47.854;7.944;2023-07-13T04:47:38;2.47;;;2.13;;
10246;SDS011;5168;47.854;7.944;2023-07-13T04:50:05;2.33;;;1.97;;
10246;SDS011;5168;47.854;7.944;2023-07-13T04:52:31;2.30;;;2.10;;
10246;SDS011;5168;47.854;7.944;2023-07-13T04:54:58;2.27;;;1.83;;
10246;SDS011;5168;47.854;7.944;2023-07-13T04:57:24;2.30;;;2.10;;
10246;SDS011;5168;47.854;7.944;2023-07-13T04:59:50;1.83;;;1.73;;
10246;SDS011;5168;47.854;7.944;2023-07-13T05:02:16;2.50;;;2.30;;
10246;SDS011;5168;47.854;7.944;2023-07-13T05:04:41;2.63;;;2.40;;
10246;SDS011;5168;47.854;7.944;2023-07-13T05:07:07;3.27;;;2.20;;
10246;SDS011;5168;47.854;7.944;2023-07-13T05:09:32;5.07;;;2.40;;
10246;SDS011;5168;47.854;7.944;2023-07-13T05:11:58;2.47;;;2.00;;
10246;SDS011;5168;47.854;7.944;2023-07-13T05:14:23;2.97;;;2.03;;
10246;SDS011;5168;47.854;7.944;2023-07-13T05:16:49;4.50;;;2.50;;
10246;SDS011;5168;47.854;7.944;2023-07-13T05:19:15;3.13;;;2.20;;
10246;SDS011;5168;47.854;7.944;2023-07-13T05:21:40;2.60;;;1.90;;
10246;SDS011;5168;47.854;7.944;2023-07-13T05:24:06;4.07;;;1.97;;
10246;SDS011;5168;47.854;7.944;2023-07-13T05:26:32;3.17;;;2.03;;
10246;SDS011;5168;47.854;7.944;2023-07-13T05:28:58;2.73;;;2.10;;
10246;SDS011;5168;47.854;7.944;2023-07-13T05:31:24;2.07;;;1.90;;
10246;SDS011;5168;47.854;7.944;2023-07-13T05:33:50;2.63;;;1.80;;
10246;SDS011;5168;47.854;7.944;2023-07-13T05:36:16;2.40;;;2.00;;
10246;SDS011;5168;47.854;7.944;2023-07-13T05:38:41;2.60;;;2.13;;
10246;SDS011;5168;47.854;7.944;2023-07-13T05:41:07;2.03;;;1.93;;
10246;SDS011;5168;47.854;7.944;2023-07-13T05:43:32;2.60;;;2.10;;
10246;SDS011;5168;47.854;7.944;2023-07-13T05:45:58;6.00;;;2.17;;
10246;SDS011;5168;47.854;7.944;2023-07-13T05:48:24;2.60;;;1.97;;
10246;SDS011;5168;47.854;7.944;2023-07-13T05:50:50;2.40;;;2.20;;
10246;SDS011;5168;47.854;7.944;2023-07-13T05:53:16;2.60;;;2.10;;
10246;SDS011;5168;47.854;7.944;2023-07-13T05:55:43;2.53;;;2.10;;
10246;SDS011;5168;47.854;7.944;2023-07-13T05:58:09;2.63;;;1.90;;
10246;SDS011;5168;47.854;7.944;2023-07-13T06:00:36;2.50;;;2.30;;
10246;SDS011;5168;47.854;7.944;2023-07-13T06:03:02;2.30;;;2.00;;
10246;SDS011;5168;47.854;7.944;2023-07-13T06:05:28;5.03;;;2.17;;
10246;SDS011;5168;47.854;7.944;2023-07-13T06:07:54;5.30;;;2.33;;
10246;SDS011;5168;47.854;7.944;2023-07-13T06:10:19;3.53;;;2.10;;
10246;SDS011;5168;47.854;7.944;2023-07-13T06:12:45;3.70;;;2.00;;
10246;SDS011;5168;47.854;7.944;2023-07-13T06:15:11;3.97;;;2.27;;
10246;SDS011;5168;47.854;7.944;2023-07-13T06:17:37;2.23;;;2.10;;
10246;SDS011;5168;47.854;7.944;2023-07-13T06:20:04;4.17;;;1.90;;
10246;SDS011;5168;47.854;7.944;2023-07-13T06:22:30;4.53;;;2.00;;
10246;SDS011;5168;47.854;7.944;2023-07-13T06:24:56;4.43;;;2.03;;
10246;SDS011;5168;47.854;7.944;2023-07-13T06:27:21;2.97;;;2.00;;
10246;SDS011;5168;47.854;7.944;2023-07-13T06:29:47;4.77;;;2.07;;
10246;SDS011;5168;47.854;7.944;2023-07-13T06:32:12;2.83;;;1.73;;
10246;SDS011;5168;47.854;7.944;2023-07-13T06:34:38;5.63;;;2.30;;
10246;SDS011;5168;47.854;7.944;2023-07-13T06:37:04;3.17;;;2.00;;
10246;SDS011;5168;47.854;7.944;2023-07-13T06:39:29;2.30;;;1.80;;
10246;SDS011;5168;47.854;7.944;2023-07-13T06:41:55;3.03;;;2.00;;
10246;SDS011;5168;47.854;7.944;2023-07-13T06:44:21;2.93;;;1.90;;
10246;SDS011;5168;47.854;7.944;2023-07-13T06:46:47;2.43;;;1.93;;
10246;SDS011;5168;47.854;7.944;2023-07-13T06:49:13;4.13;;;2.00;;
10246;SDS011;5168;47.854;7.944;2023-07-13T06:51:38;4.87;;;2.33;;
10246;SDS011;5168;47.854;7.944;2023-07-13T06:54:04;5.50;;;2.07;;
10246;SDS011;5168;47.854;7.944;2023-07-13T06:56:29;3.57;;;1.80;;
10246;SDS011;5168;47.854;7.944;2023-07-13T06:58:55;3.47;;;1.90;;
10246;SDS011;5168;47.854;7.944;2023-07-13T07:01:21;2.27;;;1.70;;
10246;SDS011;5168;47.854;7.944;2023-07-13T07:03:47;2.77;;;1.70;;
10246;SDS011;5168;47.854;7.944;2023-07-13T07:06:17;3.20;;;1.50;;
10246;SDS011;5168;47.854;7.944;2023-07-13T07:08:44;2.67;;;1.73;;
10246;SDS011;5168;47.854;7.944;2023-07-13T07:11:16;3.80;;;1.67;;
10246;SDS011;5168;47.854;7.944;2023-07-13T07:13:43;1.73;;;1.60;;
10246;SDS011;5168;47.854;7.944;2023-07-13T07:16:09;1.80;;;1.70;;
10246;SDS011;5168;47.854;7.944;2023-07-13T07:18:34;3.47;;;1.70;;
10246;SDS011;5168;47.854;7.944;2023-07-13T07:21:00;3.33;;;1.67;;
10246;SDS011;5168;47.854;7.944;2023-07-13T07:23:26;3.67;;;1.67;;
10246;SDS011;5168;47.854;7.944;2023-07-13T07:25:52;3.37;;;1.90;;
10246;SDS011;5168;47.854;7.944;2023-07-13T07:28:18;4.00;;;1.83;;
10246;SDS011;5168;47.854;7.944;2023-07-13T07:30:47;2.13;;;1.60;;
10246;SDS011;5168;47.854;7.944;2023-07-13T07:33:14;3.97;;;1.90;;
10246;SDS011;5168;47.854;7.944;2023-07-13T07:35:40;1.73;;;1.50;;
10246;SDS011;5168;47.854;7.944;2023-07-13T07:38:05;5.33;;;2.00;;
10246;SDS011;5168;47.854;7.944;2023-07-13T07:40:31;3.07;;;1.50;;
10246;SDS011;5168;47.854;7.944;2023-07-13T07:42:57;2.33;;;1.50;;
10246;SDS011;5168;47.854;7.944;2023-07-13T07:45:23;5.53;;;1.67;;
10246;SDS011;5168;47.854;7.944;2023-07-13T07:47:49;5.83;;;1.97;;
10246;SDS011;5168;47.854;7.944;2023-07-13T07:50:15;1.87;;;1.60;;
10246;SDS011;5168;47.854;7.944;2023-07-13T07:52:41;2.73;;;1.80;;
10246;SDS011;5168;47.854;7.944;2023-07-13T07:55:08;2.40;;;1.70;;
10246;SDS011;5168;47.854;7.944;2023-07-13T07:57:34;6.70;;;1.50;;
10246;SDS011;5168;47.854;7.944;2023-07-13T08:00:00;2.47;;;1.70;;
10246;SDS011;5168;47.854;7.944;2023-07-13T08:02:26;3.73;;;1.50;;
10246;SDS011;5168;47.854;7.944;2023-07-13T08:04:52;4.07;;;1.70;;
10246;SDS011;5168;47.854;7.944;2023-07-13T08:07:17;2.77;;;1.80;;
10246;SDS011;5168;47.854;7.944;2023-07-13T08:09:43;3.13;;;1.70;;
10246;SDS011;5168;47.854;7.944;2023-07-13T08:12:09;5.37;;;1.60;;
10246;SDS011;5168;47.854;7.944;2023-07-13T08:14:34;3.90;;;1.60;;
10246;SDS011;5168;47.854;7.944;2023-07-13T08:17:00;1.77;;;1.40;;
10246;SDS011;5168;47.854;7.944;2023-07-13T08:19:27;3.77;;;1.60;;
10246;SDS011;5168;47.854;7.944;2023-07-13T08:21:52;1.97;;;1.50;;
10246;SDS011;5168;47.854;7.944;2023-07-13T08:24:21;3.13;;;1.73;;
10246;SDS011;5168;47.854;7.944;2023-07-13T08:26:48;5.37;;;1.80;;
10246;SDS011;5168;47.854;7.944;2023-07-13T08:29:15;2.60;;;1.53;;
10246;SDS011;5168;47.854;7.944;2023-07-13T08:31:41;3.07;;;1.50;;
10246;SDS011;5168;47.854;7.944;2023-07-13T08:34:07;4.10;;;1.70;;
10246;SDS011;5168;47.854;7.944;2023-07-13T08:36:32;2.97;;;1.50;;
10246;SDS011;5168;47.854;7.944;2023-07-13T08:38:58;4.03;;;1.50;;
10246;SDS011;5168;47.854;7.944;2023-07-13T08:41:23;2.90;;;1.87;;
10246;SDS011;5168;47.854;7.944;2023-07-13T08:43:55;2.77;;;1.80;;
10246;SDS011;5168;47.854;7.944;2023-07-13T08:48:52;1.60;;;1.50;;
10246;SDS011;5168;47.854;7.944;2023-07-13T08:54:32;3.43;;;1.70;;
10246;SDS011;5168;47.854;7.944;2023-07-13T08:57:11;2.23;;;1.60;;
10246;SDS011;5168;47.854;7.944;2023-07-13T08:59:39;2.43;;;1.40;;
10246;SDS011;5168;47.854;7.944;2023-07-13T09:02:23;5.33;;;1.70;;
10246;SDS011;5168;47.854;7.944;2023-07-13T09:05:10;3.93;;;1.67;;
10246;SDS011;5168;47.854;7.944;2023-07-13T09:10:42;1.93;;;1.40;;
10246;SDS011;5168;47.854;7.944;2023-07-13T09:13:18;3.55;;;1.50;;
10246;SDS011;5168;47.854;7.944;2023-07-13T09:16:04;3.10;;;1.90;;
10246;SDS011;5168;47.854;7.944;2023-07-13T09:18:35;6.90;;;1.67;;
10246;SDS011;5168;47.854;7.944;2023-07-13T09:21:03;3.73;;;1.90;;
10246;SDS011;5168;47.854;7.944;2023-07-13T09:23:42;2.30;;;1.63;;
10246;SDS011;5168;47.854;7.944;2023-07-13T09:26:18;4.07;;;1.70;;
10246;SDS011;5168;47.854;7.944;2023-07-13T09:28:46;3.20;;;1.42;;
10246;SDS011;5168;47.854;7.944;2023-07-13T09:33:50;2.38;;;1.50;;
10246;SDS011;5168;47.854;7.944;2023-07-13T09:36:23;2.70;;;1.60;;
10246;SDS011;5168;47.854;7.944;2023-07-13T09:38:56;3.00;;;1.60;;
10246;SDS011;5168;47.854;7.944;2023-07-13T09:41:33;1.73;;;1.30;;
10246;SDS011;5168;47.854;7.944;2023-07-13T09:44:17;2.15;;;1.38;;
10246;SDS011;5168;47.854;7.944;2023-07-13T09:46:52;4.30;;;1.42;;
10246;SDS011;5168;47.854;7.944;2023-07-13T09:49:22;4.25;;;1.70;;
10246;SDS011;5168;47.854;7.944;2023-07-13T09:51:57;2.72;;;1.73;;
10246;SDS011;5168;47.854;7.944;2023-07-13T09:54:25;2.88;;;1.70;;
10246;SDS011;5168;47.854;7.944;2023-07-13T09:56:58;2.40;;;1.58;;
10246;SDS011;5168;47.854;7.944;2023-07-13T09:59:32;3.72;;;1.60;;
10246;SDS011;5168;47.854;7.944;2023-07-13T10:01:59;1.60;;;1.45;;
10246;SDS011;5168;47.854;7.944;2023-07-13T10:04:30;2.53;;;1.50;;
10246;SDS011;5168;47.854;7.944;2023-07-13T10:07:07;2.50;;;1.50;;
10246;SDS011;5168;47.854;7.944;2023-07-13T10:09:34;4.05;;;1.50;;
10246;SDS011;5168;47.854;7.944;2023-07-13T10:12:00;4.72;;;1.90;;
10246;SDS011;5168;47.854;7.944;2023-07-13T10:14:26;2.75;;;1.65;;
10246;SDS011;5168;47.854;7.944;2023-07-13T10:16:55;4.05;;;1.83;;
10246;SDS011;5168;47.854;7.944;2023-07-13T10:19:27;7.05;;;1.50;;
10246;SDS011;5168;47.854;7.944;2023-07-13T10:22:14;2.25;;;1.58;;
10246;SDS011;5168;47.854;7.944;2023-07-13T10:24:58;2.97;;;1.48;;
10246;SDS011;5168;47.854;7.944;2023-07-13T10:27:33;3.67;;;1.58;;
10246;SDS011;5168;47.854;7.944;2023-07-13T10:30:09;3.80;;;1.58;;
10246;SDS011;5168;47.854;7.944;2023-07-13T10:32:37;3.90;;;1.52;;
10246;SDS011;5168;47.854;7.944;2023-07-13T10:35:03;6.70;;;1.75;;
10246;SDS011;5168;47.854;7.944;2023-07-13T10:37:30;2.53;;;1.60;;
10246;SDS011;5168;47.854;7.944;2023-07-13T10:40:14;2.65;;;1.85;;
10246;SDS011;5168;47.854;7.944;2023-07-13T10:42:45;3.05;;;1.42;;
10246;SDS011;5168;47.854;7.944;2023-07-13T10:45:17;2.08;;;1.40;;
10246;SDS011;5168;47.854;7.944;2023-07-13T10:47:44;3.28;;;1.40;;
10246;SDS011;5168;47.854;7.944;2023-07-13T10:50:18;3.70;;;1.50;;
10246;SDS011;5168;47.854;7.944;2023-07-13T10:52:47;2.25;;;1.52;;
10246;SDS011;5168;47.854;7.944;2023-07-13T11:03:54;1.52;;;1.38;;
10246;SDS011;5168;47.854;7.944;2023-07-13T11:12:02;3.58;;;1.73;;
10246;SDS011;5168;47.854;7.944;2023-07-13T11:20:43;1.60;;;1.40;;
10246;SDS011;5168;47.854;7.944;2023-07-13T11:23:15;1.52;;;1.40;;
10246;SDS011;5168;47.854;7.944;2023-07-13T11:25:42;3.08;;;1.77;;
10246;SDS011;5168;47.854;7.944;2023-07-13T11:30:38;2.55;;;1.60;;
10246;SDS011;5168;47.854;7.944;2023-07-13T11:36:03;4.38;;;1.60;;
10246;SDS011;5168;47.854;7.944;2023-07-13T11:38:41;2.25;;;1.40;;
10246;SDS011;5168;47.854;7.944;2023-07-13T11:41:21;5.57;;;1.88;;
10246;SDS011;5168;47.854;7.944;2023-07-13T11:43:49;1.88;;;1.48;;
10246;SDS011;5168;47.854;7.944;2023-07-13T11:46:20;1.83;;;1.50;;
10246;SDS011;5168;47.854;7.944;2023-07-13T11:48:48;3.33;;;1.30;;
10246;SDS011;5168;47.854;7.944;2023-07-13T11:51:37;1.58;;;1.30;;
10246;SDS011;5168;47.854;7.944;2023-07-13T11:54:46;1.98;;;1.40;;
10246;SDS011;5168;47.854;7.944;2023-07-13T11:56:58;1.70;;;1.23;;
10246;SDS011;5168;47.854;7.944;2023-07-13T11:59:31;1.30;;;1.20;;
10246;SDS011;5168;47.854;7.944;2023-07-13T12:01:58;4.70;;;1.10;;
10246;SDS011;5168;47.854;7.944;2023-07-13T12:04:25;1.55;;;1.30;;
10246;SDS011;5168;47.854;7.944;2023-07-13T12:06:58;1.48;;;1.33;;
10246;SDS011;5168;47.854;7.944;2023-07-13T12:09:32;1.92;;;1.45;;
10246;SDS011;5168;47.854;7.944;2023-07-13T12:12:01;1.35;;;1.20;;
10246;SDS011;5168;47.854;7.944;2023-07-13T12:14:27;2.22;;;1.30;;
10246;SDS011;5168;47.854;7.944;2023-07-13T12:16:53;2.42;;;1.40;;
10246;SDS011;5168;47.854;7.944;2023-07-13T12:19:23;3.88;;;1.45;;
10246;SDS011;5168;47.854;7.944;2023-07-13T12:21:58;2.38;;;1.60;;
10246;SDS011;5168;47.854;7.944;2023-07-13T12:24:24;1.20;;;1.10;;
10246;SDS011;5168;47.854;7.944;2023-07-13T12:27:33;1.50;;;1.33;;
10246;SDS011;5168;47.854;7.944;2023-07-13T12:29:56;1.52;;;1.30;;
10246;SDS011;5168;47.854;7.944;2023-07-13T12:32:25;1.42;;;1.20;;
10246;SDS011;5168;47.854;7.944;2023-07-13T12:34:55;2.05;;;1.27;;
10246;SDS011;5168;47.854;7.944;2023-07-13T12:37:22;4.57;;;1.60;;
10246;SDS011;5168;47.854;7.944;2023-07-13T12:39:48;6.05;;;1.30;;
10246;SDS011;5168;47.854;7.944;2023-07-13T12:42:26;1.83;;;1.20;;
10246;SDS011;5168;47.854;7.944;2023-07-13T12:44:54;3.17;;;1.55;;
10246;SDS011;5168;47.854;7.944;2023-07-13T12:47:26;1.73;;;1.35;;
10246;SDS011;5168;47.854;7.944;2023-07-13T12:49:54;1.10;;;1.00;;
10246;SDS011;5168;47.854;7.944;2023-07-13T12:52:34;2.15;;;1.20;;
10246;SDS011;5168;47.854;7.944;2023-07-13T12:55:21;1.65;;;1.35;;
10246;SDS011;5168;47.854;7.944;2023-07-13T12:57:51;1.70;;;1.42;;
10246;SDS011;5168;47.854;7.944;2023-07-13T13:00:26;1.45;;;1.35;;
10246;SDS011;5168;47.854;7.944;2023-07-13T13:02:57;1.92;;;1.20;;
10246;SDS011;5168;47.854;7.944;2023-07-13T13:05:28;2.03;;;1.10;;
10246;SDS011;5168;47.854;7.944;2023-07-13T13:07:54;2.20;;;1.38;;
10246;SDS011;5168;47.854;7.944;2023-07-13T13:10:20;1.27;;;1.17;;
10246;SDS011;5168;47.854;7.944;2023-07-13T13:12:46;5.20;;;1.25;;
10246;SDS011;5168;47.854;7.944;2023-07-13T13:15:13;1.92;;;1.30;;
10246;SDS011;5168;47.854;7.944;2023-07-13T13:17:39;4.05;;;1.30;;
10246;SDS011;5168;47.854;7.944;2023-07-13T13:20:14;2.08;;;1.20;;
10246;SDS011;5168;47.854;7.944;2023-07-13T13:22:41;1.58;;;1.30;;
10246;SDS011;5168;47.854;7.944;2023-07-13T13:25:09;2.35;;;1.50;;
10246;SDS011;5168;47.854;7.944;2023-07-13T13:27:36;2.55;;;1.33;;
10246;SDS011;5168;47.854;7.944;2023-07-13T13:30:02;1.55;;;1.20;;
10246;SDS011;5168;47.854;7.944;2023-07-13T13:32:28;1.60;;;1.15;;
10246;SDS011;5168;47.854;7.944;2023-07-13T13:34:54;2.50;;;1.38;;
10246;SDS011;5168;47.854;7.944;2023-07-13T13:37:23;2.03;;;1.23;;
10246;SDS011;5168;47.854;7.944;2023-07-13T13:39:50;1.17;;;1.08;;
10246;SDS011;5168;47.854;7.944;2023-07-13T13:42:17;2.08;;;1.33;;
10246;SDS011;5168;47.854;7.944;2023-07-13T13:44:42;1.58;;;1.33;;
10246;SDS011;5168;47.854;7.944;2023-07-13T13:47:20;3.03;;;1.20;;
10246;SDS011;5168;47.854;7.944;2023-07-13T13:49:55;1.65;;;1.10;;
10246;SDS011;5168;47.854;7.944;2023-07-13T13:52:21;1.58;;;1.42;;
10246;SDS011;5168;47.854;7.944;2023-07-13T13:54:46;5.28;;;1.25;;
10246;SDS011;5168;47.854;7.944;2023-07-13T13:57:12;5.72;;;1.55;;
10246;SDS011;5168;47.854;7.944;2023-07-13T13:59:38;2.15;;;1.50;;
10246;SDS011;5168;47.854;7.944;2023-07-13T14:02:23;2.13;;;1.20;;
10246;SDS011;5168;47.854;7.944;2023-07-13T14:04:58;1.40;;;1.17;;
10246;SDS011;5168;47.854;7.944;2023-07-13T14:07:25;2.42;;;1.20;;
10246;SDS011;5168;47.854;7.944;2023-07-13T14:09:52;5.47;;;1.40;;
10246;SDS011;5168;47.854;7.944;2023-07-13T14:12:20;5.05;;;1.50;;
10246;SDS011;5168;47.854;7.944;2023-07-13T14:14:46;2.33;;;1.50;;
10246;SDS011;5168;47.854;7.944;2023-07-13T14:17:16;2.40;;;1.50;;
10246;SDS011;5168;47.854;7.944;2023-07-13T14:19:49;1.63;;;1.52;;
10246;SDS011;5168;47.854;7.944;2023-07-13T14:22:17;4.00;;;1.30;;
10246;SDS011;5168;47.854;7.944;2023-07-13T14:24:43;2.58;;;1.30;;
10246;SDS011;5168;47.854;7.944;2023-07-13T14:27:10;2.53;;;1.50;;
10246;SDS011;5168;47.854;7.944;2023-07-13T14:29:37;2.28;;;1.23;;
10246;SDS011;5168;47.854;7.944;2023-07-13T14:32:02;2.38;;;1.40;;
10246;SDS011;5168;47.854;7.944;2023-07-13T14:34:30;3.58;;;1.70;;
10246;SDS011;5168;47.854;7.944;2023-07-13T14:36:56;2.05;;;1.50;;
10246;SDS011;5168;47.854;7.944;2023-07-13T14:39:24;2.22;;;1.55;;
10246;SDS011;5168;47.854;7.944;2023-07-13T14:41:51;1.75;;;1.50;;
10246;SDS011;5168;47.854;7.944;2023-07-13T14:44:20;2.28;;;1.27;;
10246;SDS011;5168;47.854;7.944;2023-07-13T14:46:48;1.92;;;1.40;;
10246;SDS011;5168;47.854;7.944;2023-07-13T14:49:27;1.67;;;1.38;;
10246;SDS011;5168;47.854;7.944;2023-07-13T14:51:55;2.20;;;1.45;;
10246;SDS011;5168;47.854;7.944;2023-07-13T14:54:23;4.22;;;1.40;;
10246;SDS011;5168;47.854;7.944;2023-07-13T14:56:49;1.95;;;1.27;;
10246;SDS011;5168;47.854;7.944;2023-07-13T14:59:15;3.65;;;1.33;;
10246;SDS011;5168;47.854;7.944;2023-07-13T15:01:43;2.75;;;1.40;;
10246;SDS011;5168;47.854;7.944;2023-07-13T15:04:10;1.50;;;1.40;;
10246;SDS011;5168;47.854;7.944;2023-07-13T15:09:22;2.20;;;1.40;;
10246;SDS011;5168;47.854;7.944;2023-07-13T15:11:51;3.33;;;1.50;;
10246;SDS011;5168;47.854;7.944;2023-07-13T15:14:17;3.15;;;1.50;;
10246;SDS011;5168;47.854;7.944;2023-07-13T15:16:43;2.83;;;1.63;;
10246;SDS011;5168;47.854;7.944;2023-07-13T15:19:10;2.17;;;1.60;;
10246;SDS011;5168;47.854;7.944;2023-07-13T15:21:36;1.67;;;1.33;;
10246;SDS011;5168;47.854;7.944;2023-07-13T15:24:02;1.67;;;1.45;;
10246;SDS011;5168;47.854;7.944;2023-07-13T15:26:28;4.10;;;1.58;;
10246;SDS011;5168;47.854;7.944;2023-07-13T15:28:55;1.67;;;1.42;;
10246;SDS011;5168;47.854;7.944;2023-07-13T15:31:24;3.25;;;1.70;;
10246;SDS011;5168;47.854;7.944;2023-07-13T15:33:56;2.22;;;1.45;;
10246;SDS011;5168;47.854;7.944;2023-07-13T15:36:23;1.75;;;1.45;;
10246;SDS011;5168;47.854;7.944;2023-07-13T15:38:53;4.03;;;1.60;;
10246;SDS011;5168;47.854;7.944;2023-07-13T15:41:24;2.60;;;1.42;;
10246;SDS011;5168;47.854;7.944;2023-07-13T15:43:54;1.50;;;1.40;;
10246;SDS011;5168;47.854;7.944;2023-07-13T15:46:23;3.83;;;1.60;;
10246;SDS011;5168;47.854;7.944;2023-07-13T15:48:53;3.90;;;1.70;;